createdAt,value
2018-12-17T00:00:23.540Z,4.29
2018-12-17T00:01:23.548Z,4.25
2018-12-17T00:02:23.556Z,4.19
2018-12-17T00:03:23.571Z,4.14
2018-12-17T00:04:23.584Z,4.08
2018-12-17T00:05:23.599Z,4.06
2018-12-17T00:06:23.608Z,3.98
2018-12-17T00:07:23.621Z,4.00
2018-12-17T00:08:23.635Z,3.88
2018-12-17T00:09:23.641Z,3.90
2018-12-17T00:10:23.657Z,3.85
2018-12-17T00:11:23.664Z,3.90
2018-12-17T00:12:23.683Z,3.88
2018-12-17T00:13:23.755Z,3.92
2018-12-17T00:14:23.700Z,3.90
2018-12-17T00:15:23.708Z,3.97
2018-12-17T00:16:23.788Z,3.97
2018-12-17T00:17:23.730Z,3.90
2018-12-17T00:18:23.741Z,3.97
2018-12-17T00:19:23.756Z,3.92
2018-12-17T00:20:23.767Z,3.97
2018-12-17T00:21:23.783Z,3.86
2018-12-17T00:22:23.793Z,3.90
2018-12-17T00:23:23.806Z,3.71
2018-12-17T00:24:23.814Z,3.67
2018-12-17T00:25:23.826Z,3.67
2018-12-17T00:26:23.833Z,3.62
2018-12-17T00:27:23.843Z,3.62
2018-12-17T00:28:23.859Z,3.58
2018-12-17T00:29:23.866Z,3.57
2018-12-17T00:30:23.879Z,3.49
2018-12-17T00:31:23.894Z,3.46
2018-12-17T00:32:23.911Z,3.47
2018-12-17T00:33:23.915Z,3.36
2018-12-17T00:34:23.937Z,3.30
2018-12-17T00:35:23.940Z,3.28
2018-12-17T00:36:23.951Z,3.30
2018-12-17T00:37:23.960Z,3.23
2018-12-17T00:38:23.968Z,3.23
2018-12-17T00:39:23.981Z,3.12
2018-12-17T00:40:23.999Z,3.02
2018-12-17T00:41:24.031Z,3.09
2018-12-17T00:42:24.013Z,3.03
2018-12-17T00:43:24.028Z,3.02
2018-12-17T00:44:24.049Z,2.87
2018-12-17T00:45:24.049Z,2.94
2018-12-17T00:46:24.061Z,2.87
2018-12-17T00:47:24.078Z,2.95
2018-12-17T00:48:24.082Z,3.00
2018-12-17T00:49:24.094Z,2.88
2018-12-17T00:50:24.102Z,2.82
2018-12-17T00:51:24.112Z,2.77
2018-12-17T00:52:24.125Z,2.76
2018-12-17T00:53:24.136Z,2.79
2018-12-17T00:54:24.150Z,2.73
2018-12-17T00:55:24.154Z,2.69
2018-12-17T00:56:24.172Z,2.66
2018-12-17T00:57:24.181Z,2.73
2018-12-17T00:58:24.193Z,2.71
2018-12-17T00:59:24.201Z,2.67
2018-12-17T01:00:24.212Z,2.61
2018-12-17T01:01:24.224Z,2.61
2018-12-17T01:02:24.237Z,2.67
2018-12-17T01:03:24.246Z,2.45
2018-12-17T01:04:24.254Z,2.49
2018-12-17T01:05:24.263Z,2.58
2018-12-17T01:06:24.276Z,2.52
2018-12-17T01:07:24.285Z,2.51
2018-12-17T01:08:24.297Z,2.56
2018-12-17T01:09:24.305Z,2.59
2018-12-17T01:10:24.314Z,2.61
2018-12-17T01:11:24.331Z,2.55
2018-12-17T01:12:24.345Z,2.49
2018-12-17T01:13:24.356Z,2.53
2018-12-17T01:14:24.361Z,2.49
2018-12-17T01:15:24.367Z,2.58
2018-12-17T01:16:24.379Z,2.55
2018-12-17T01:17:24.393Z,2.66
2018-12-17T01:18:24.403Z,2.61
2018-12-17T01:19:24.414Z,2.77
2018-12-17T01:20:24.433Z,2.70
2018-12-17T01:21:24.430Z,2.74
2018-12-17T01:22:24.444Z,2.79
2018-12-17T01:23:24.455Z,2.87
2018-12-17T01:24:24.465Z,2.76
2018-12-17T01:25:24.474Z,2.87
2018-12-17T01:26:24.501Z,2.74
2018-12-17T01:27:24.502Z,2.70
2018-12-17T01:28:24.503Z,2.81
2018-12-17T01:29:24.517Z,2.85
2018-12-17T01:30:24.588Z,2.87
2018-12-17T01:31:24.541Z,2.88
2018-12-17T01:32:24.551Z,2.76
2018-12-17T01:33:24.562Z,2.76
2018-12-17T01:34:24.568Z,2.81
2018-12-17T01:35:24.576Z,2.77
2018-12-17T01:36:24.591Z,2.76
2018-12-17T01:37:24.601Z,2.74
2018-12-17T01:38:24.614Z,2.74
2018-12-17T01:39:24.626Z,2.76
2018-12-17T01:40:24.633Z,2.79
2018-12-17T01:41:24.642Z,2.85
2018-12-17T01:42:24.653Z,2.77
2018-12-17T01:43:24.661Z,2.89
2018-12-17T01:44:24.670Z,2.76
2018-12-17T01:45:24.728Z,2.74
2018-12-17T01:46:24.695Z,2.69
2018-12-17T01:47:24.710Z,2.77
2018-12-17T01:48:24.713Z,2.77
2018-12-17T01:49:24.726Z,2.84
2018-12-17T01:50:24.744Z,2.88
2018-12-17T01:51:24.751Z,2.91
2018-12-17T01:52:24.774Z,2.77
2018-12-17T01:53:24.768Z,2.84
2018-12-17T01:54:24.781Z,2.92
2018-12-17T01:55:24.784Z,2.89
2018-12-17T01:56:24.800Z,2.87
2018-12-17T01:57:24.824Z,2.88
2018-12-17T01:58:29.168Z,2.76
2018-12-17T01:59:24.832Z,2.76
2018-12-17T02:00:24.841Z,2.81
2018-12-17T02:01:24.849Z,2.71
2018-12-17T02:02:24.860Z,2.84
2018-12-17T02:03:24.871Z,2.73
2018-12-17T02:04:24.884Z,2.77
2018-12-17T02:05:24.893Z,2.73
2018-12-17T02:06:24.903Z,2.76
2018-12-17T02:07:24.916Z,2.73
2018-12-17T02:08:24.922Z,2.71
2018-12-17T02:09:24.937Z,2.79
2018-12-17T02:10:24.945Z,2.77
2018-12-17T02:11:24.992Z,2.73
2018-12-17T02:12:25.014Z,2.81
2018-12-17T02:13:24.978Z,2.88
2018-12-17T02:14:25.010Z,2.85
2018-12-17T02:15:25.001Z,2.89
2018-12-17T02:16:25.005Z,2.95
2018-12-17T02:17:25.023Z,2.85
2018-12-17T02:18:25.040Z,3.03
2018-12-17T02:19:25.054Z,3.03
2018-12-17T02:20:25.052Z,3.02
2018-12-17T02:21:25.061Z,3.07
2018-12-17T02:22:25.075Z,3.21
2018-12-17T02:23:25.083Z,3.25
2018-12-17T02:24:25.097Z,3.21
2018-12-17T02:25:25.111Z,3.23
2018-12-17T02:26:25.122Z,3.18
2018-12-17T02:27:25.131Z,3.23
2018-12-17T02:28:25.139Z,3.20
2018-12-17T02:29:25.147Z,3.30
2018-12-17T02:30:25.160Z,3.21
2018-12-17T02:31:25.171Z,3.20
2018-12-17T02:32:25.181Z,3.24
2018-12-17T02:33:25.195Z,3.24
2018-12-17T02:34:25.200Z,3.28
2018-12-17T02:35:25.318Z,3.30
2018-12-17T02:36:25.225Z,3.40
2018-12-17T02:37:25.238Z,3.39
2018-12-17T02:38:25.278Z,3.52
2018-12-17T02:39:25.253Z,3.49
2018-12-17T02:40:25.265Z,3.47
2018-12-17T02:41:25.281Z,3.53
2018-12-17T02:42:25.289Z,3.53
2018-12-17T02:43:25.296Z,3.54
2018-12-17T02:44:25.312Z,3.57
2018-12-17T02:45:25.321Z,3.67
2018-12-17T02:46:25.328Z,3.68
2018-12-17T02:47:25.340Z,3.65
2018-12-17T02:48:25.351Z,3.67
2018-12-17T02:49:25.369Z,3.53
2018-12-17T02:50:25.381Z,3.54
2018-12-17T02:51:25.385Z,3.60
2018-12-17T02:52:25.397Z,3.53
2018-12-17T02:53:25.407Z,3.58
2018-12-17T02:54:25.415Z,3.43
2018-12-17T02:55:25.433Z,3.52
2018-12-17T02:56:25.437Z,3.49
2018-12-17T02:57:25.448Z,3.60
2018-12-17T02:58:25.460Z,3.62
2018-12-17T02:59:25.467Z,3.44
2018-12-17T03:00:25.485Z,3.49
2018-12-17T03:01:25.492Z,3.50
2018-12-17T03:02:25.504Z,3.46
2018-12-17T03:03:25.518Z,3.44
2018-12-17T03:04:25.526Z,3.42
2018-12-17T03:05:25.543Z,3.44
2018-12-17T03:06:25.547Z,3.44
2018-12-17T03:07:25.561Z,3.44
2018-12-17T03:08:25.569Z,3.52
2018-12-17T03:38:16.527Z,3.75
2018-12-17T03:39:16.502Z,3.70
2018-12-17T03:41:08.400Z,3.78
2018-12-17T03:42:08.404Z,3.67
2018-12-17T03:44:00.344Z,3.65
2018-12-17T03:45:00.331Z,3.65
2018-12-17T03:46:52.243Z,3.75
2018-12-17T03:47:52.228Z,3.78
2018-12-17T03:49:44.137Z,3.79
2018-12-17T03:50:44.131Z,3.79
2018-12-17T03:52:36.055Z,3.82
2018-12-17T03:53:36.033Z,3.92
2018-12-17T03:55:27.977Z,3.92
2018-12-17T03:56:27.950Z,3.89
2018-12-17T03:58:19.889Z,3.96
2018-12-17T03:59:19.868Z,3.96
2018-12-17T04:01:11.770Z,4.00
2018-12-17T04:02:11.776Z,4.00
2018-12-17T04:04:03.699Z,4.03
2018-12-17T04:05:03.690Z,4.03
2018-12-17T04:06:55.604Z,3.89
2018-12-17T04:07:55.590Z,4.00
2018-12-17T04:09:47.498Z,3.97
2018-12-17T04:10:47.504Z,4.07
2018-12-17T04:12:39.442Z,4.12
2018-12-17T04:13:39.418Z,4.12
2018-12-17T04:15:31.330Z,4.19
2018-12-17T04:16:31.329Z,4.15
2018-12-17T04:18:23.264Z,4.06
2018-12-17T04:19:23.241Z,4.14
2018-12-17T04:21:15.164Z,4.10
2018-12-17T04:22:15.164Z,4.08
2018-12-17T04:24:07.085Z,4.07
2018-12-17T04:25:07.074Z,4.08
2018-12-17T04:26:59.002Z,4.07
2018-12-17T04:27:58.987Z,4.14
2018-12-17T04:29:50.896Z,4.03
2018-12-17T04:30:50.903Z,4.14
2018-12-17T04:32:42.814Z,4.16
2018-12-17T04:33:42.802Z,4.22
2018-12-17T04:35:34.717Z,4.26
2018-12-17T04:36:34.717Z,4.19
2018-12-17T04:38:26.649Z,4.24
2018-12-17T04:39:26.629Z,4.16
2018-12-17T04:41:18.555Z,4.28
2018-12-17T04:42:18.554Z,4.26
2018-12-17T04:44:10.479Z,4.15
2018-12-17T04:45:10.467Z,4.18
2018-12-17T04:47:02.407Z,4.07
2018-12-17T04:48:02.396Z,4.12
2018-12-17T04:49:54.335Z,4.21
2018-12-17T04:50:54.337Z,4.07
2018-12-17T04:52:46.265Z,4.04
2018-12-17T04:53:46.249Z,4.10
2018-12-17T04:55:38.157Z,4.07
2018-12-17T04:56:38.160Z,4.14
2018-12-17T04:58:30.108Z,4.12
2018-12-17T04:59:30.095Z,4.07
2018-12-17T05:01:22.017Z,4.10
2018-12-17T05:02:22.042Z,4.19
2018-12-17T05:04:13.947Z,4.16
2018-12-17T05:05:13.930Z,4.19
2018-12-17T05:07:05.832Z,4.19
2018-12-17T05:08:05.836Z,4.34
2018-12-17T05:09:57.761Z,4.37
2018-12-17T05:10:57.749Z,4.47
2018-12-17T05:12:49.678Z,4.42
2018-12-17T05:13:49.671Z,4.36
2018-12-17T05:15:41.600Z,4.39
2018-12-17T05:16:41.594Z,4.44
2018-12-17T05:18:34.027Z,4.52
2018-12-17T05:19:34.008Z,4.52
2018-12-17T05:21:25.921Z,4.61
2018-12-17T05:22:25.929Z,4.69
2018-12-17T05:24:17.870Z,4.64
2018-12-17T05:25:17.854Z,4.67
2018-12-17T05:27:09.770Z,4.52
2018-12-17T05:28:09.786Z,4.51
2018-12-17T05:30:02.205Z,4.47
2018-12-17T05:31:02.204Z,4.34
2018-12-17T05:32:54.583Z,4.40
2018-12-17T05:33:54.586Z,4.39
2018-12-17T05:35:46.518Z,4.47
2018-12-17T05:36:46.503Z,4.42
2018-12-17T05:38:38.457Z,4.46
2018-12-17T05:39:38.426Z,4.51
2018-12-17T05:41:30.345Z,4.50
2018-12-17T05:42:30.364Z,4.62
2018-12-17T05:44:22.272Z,4.57
2018-12-17T05:45:22.258Z,4.58
2018-12-17T05:47:14.163Z,4.51
2018-12-17T05:48:14.171Z,4.51
2018-12-17T05:50:06.110Z,4.55
2018-12-17T05:51:06.100Z,4.57
2018-12-17T05:52:58.015Z,4.59
2018-12-17T05:53:58.021Z,4.55
2018-12-17T05:55:50.003Z,4.61
2018-12-17T05:56:49.959Z,4.61
2018-12-17T05:58:41.867Z,4.70
2018-12-17T05:59:41.870Z,4.61
2018-12-17T06:01:33.803Z,4.52
2018-12-17T06:02:33.781Z,4.42
2018-12-17T06:04:25.729Z,4.46
2018-12-17T06:05:25.708Z,4.44
2018-12-17T06:07:17.616Z,4.52
2018-12-17T06:08:17.623Z,4.43
2018-12-17T06:10:09.561Z,4.51
2018-12-17T06:11:09.547Z,4.44
2018-12-17T06:13:01.450Z,4.42
2018-12-17T06:14:01.452Z,4.43
2018-12-17T06:15:53.388Z,4.54
2018-12-17T06:16:53.370Z,4.54
2018-12-17T06:18:45.283Z,4.51
2018-12-17T06:19:45.294Z,4.55
2018-12-17T06:21:37.235Z,4.55
2018-12-17T06:22:37.218Z,4.55
2018-12-17T06:24:29.165Z,4.55
2018-12-17T06:25:29.150Z,4.51
2018-12-17T06:27:21.033Z,4.65
2018-12-17T06:28:21.036Z,4.65
2018-12-17T06:30:12.990Z,4.65
2018-12-17T06:31:12.978Z,4.59
2018-12-17T06:33:05.880Z,4.67
2018-12-17T06:34:04.914Z,4.65
2018-12-17T06:35:56.841Z,4.76
2018-12-17T06:36:56.824Z,4.64
2018-12-17T06:38:48.741Z,4.86
2018-12-17T06:39:48.750Z,4.70
2018-12-17T06:41:40.681Z,4.75
2018-12-17T06:42:40.666Z,4.72
2018-12-17T06:44:32.582Z,4.80
2018-12-17T06:45:32.588Z,4.72
2018-12-17T06:47:24.525Z,4.80
2018-12-17T06:48:24.506Z,4.91
2018-12-17T06:50:16.469Z,4.83
2018-12-17T06:51:16.436Z,4.77
2018-12-17T06:53:08.359Z,4.88
2018-12-17T06:54:08.365Z,4.83
2018-12-17T06:56:00.305Z,5.02
2018-12-17T06:57:00.296Z,5.02
2018-12-17T06:58:52.713Z,5.01
2018-12-17T06:59:52.707Z,4.98
2018-12-17T07:01:44.669Z,5.13
2018-12-17T07:02:44.656Z,5.04
2018-12-17T07:04:36.578Z,5.02
2018-12-17T07:05:36.587Z,5.09
2018-12-17T07:07:28.541Z,4.99
2018-12-17T07:08:28.627Z,4.98
2018-12-17T07:10:20.447Z,5.02
2018-12-17T07:11:20.450Z,5.07
2018-12-17T07:13:12.399Z,5.02
2018-12-17T07:14:12.383Z,5.17
2018-12-17T07:16:04.338Z,5.25
2018-12-17T07:17:04.311Z,5.37
2018-12-17T07:18:56.235Z,5.23
2018-12-17T07:19:56.241Z,5.20
2018-12-17T07:21:48.165Z,5.28
2018-12-17T07:22:48.146Z,5.23
2018-12-17T07:24:40.060Z,5.49
2018-12-17T07:25:40.066Z,5.50
2018-12-17T07:27:31.993Z,5.48
2018-12-17T07:28:31.986Z,5.57
2018-12-17T07:30:23.892Z,5.60
2018-12-17T07:31:23.898Z,5.70
2018-12-17T07:33:15.841Z,5.67
2018-12-17T07:34:15.826Z,5.73
2018-12-17T07:36:07.749Z,5.71
2018-12-17T07:37:07.762Z,5.85
2018-12-17T07:38:59.700Z,5.83
2018-12-17T07:39:59.692Z,5.83
2018-12-17T07:41:51.618Z,5.88
2018-12-17T07:42:51.628Z,5.92
2018-12-17T07:44:43.525Z,5.86
2018-12-17T07:45:43.534Z,5.83
2018-12-17T07:47:35.479Z,5.89
2018-12-17T07:48:35.468Z,6.01
2018-12-17T07:50:27.372Z,5.91
2018-12-17T07:51:27.381Z,6.13
2018-12-17T07:53:19.327Z,6.00
2018-12-17T07:54:19.314Z,6.07
2018-12-17T07:56:11.215Z,6.09
2018-12-17T07:57:11.228Z,6.22
2018-12-17T07:59:03.159Z,6.29
2018-12-17T08:00:03.142Z,6.28
2018-12-17T08:01:55.077Z,6.18
2018-12-17T08:02:55.082Z,6.33
2018-12-17T08:04:47.014Z,6.35
2018-12-17T08:05:47.014Z,6.33
2018-12-17T08:07:38.946Z,6.35
2018-12-17T08:08:38.933Z,6.46
2018-12-17T08:10:30.860Z,6.47
2018-12-17T08:11:30.847Z,6.46
2018-12-17T08:13:22.796Z,6.44
2018-12-17T08:14:22.795Z,6.53
2018-12-17T08:16:14.700Z,6.51
2018-12-17T08:17:14.715Z,6.50
2018-12-17T08:19:06.641Z,6.53
2018-12-17T08:20:06.637Z,6.61
2018-12-17T08:21:58.560Z,6.58
2018-12-17T08:22:58.558Z,6.59
2018-12-17T08:24:50.972Z,6.69
2018-12-17T08:25:50.541Z,6.71
2018-12-17T08:27:42.465Z,6.79
2018-12-17T08:28:42.475Z,6.84
2018-12-17T08:30:34.334Z,6.79
2018-12-17T08:31:34.339Z,6.80
2018-12-17T08:33:26.267Z,6.76
2018-12-17T08:34:27.168Z,6.77
2018-12-17T08:36:18.160Z,6.79
2018-12-17T08:37:18.161Z,6.97
2018-12-17T08:39:10.096Z,6.81
2018-12-17T08:40:10.083Z,6.77
2018-12-17T08:42:02.010Z,6.90
2018-12-17T08:43:01.998Z,6.89
2018-12-17T08:44:53.989Z,6.87
2018-12-17T08:45:53.922Z,6.90
2018-12-17T08:47:45.830Z,7.01
2018-12-17T08:48:45.836Z,7.07
2018-12-17T08:50:37.769Z,6.99
2018-12-17T08:51:37.762Z,7.09
2018-12-17T08:53:29.718Z,7.09
2018-12-17T08:54:29.695Z,7.09
2018-12-17T08:56:21.606Z,7.20
2018-12-17T08:57:21.611Z,7.29
2018-12-17T08:59:13.542Z,7.15
2018-12-17T09:00:13.523Z,7.27
2018-12-17T09:02:05.454Z,7.17
2018-12-17T09:03:05.458Z,7.17
2018-12-17T09:04:57.418Z,7.22
2018-12-17T09:05:57.410Z,7.20
2018-12-17T09:07:49.341Z,7.23
2018-12-17T09:08:49.340Z,7.19
2018-12-17T09:10:41.284Z,7.22
2018-12-17T09:11:41.266Z,7.20
2018-12-17T09:13:33.195Z,7.23
2018-12-17T09:14:33.183Z,7.34
2018-12-17T09:16:25.118Z,7.35
2018-12-17T09:17:25.125Z,7.32
2018-12-17T09:19:17.088Z,7.37
2018-12-17T09:20:17.069Z,7.40
2018-12-17T09:22:08.978Z,7.35
2018-12-17T09:23:08.979Z,7.40
2018-12-17T09:25:00.919Z,7.44
2018-12-17T09:26:00.905Z,7.55
2018-12-17T09:27:52.848Z,7.47
2018-12-17T09:28:52.843Z,7.47
2018-12-17T09:30:44.806Z,7.47
2018-12-17T09:31:44.792Z,7.50
2018-12-17T09:33:36.721Z,7.42
2018-12-17T09:34:36.710Z,7.44
2018-12-17T09:36:28.631Z,7.49
2018-12-17T09:37:28.639Z,7.49
2018-12-17T09:39:20.564Z,7.53
2018-12-17T09:40:20.711Z,7.59
2018-12-17T09:42:12.693Z,7.63
2018-12-17T09:43:12.603Z,7.79
2018-12-17T09:44:12.479Z,7.75
2018-12-17T09:45:12.505Z,7.75
2018-12-17T09:46:12.812Z,7.75
2018-12-17T09:47:12.726Z,7.78
2018-12-17T09:48:12.729Z,7.87
2018-12-17T09:49:12.625Z,7.87
2018-12-17T09:50:12.757Z,7.92
2018-12-17T09:51:19.319Z,7.93
2018-12-17T09:52:12.582Z,7.96
2018-12-17T09:53:13.882Z,7.82
2018-12-17T09:54:12.610Z,7.96
2018-12-17T09:55:12.908Z,8.03
2018-12-17T09:56:12.652Z,8.00
2018-12-17T09:57:14.155Z,8.03
2018-12-17T09:58:12.714Z,7.99
2018-12-17T09:59:12.784Z,8.08
2018-12-17T10:00:12.737Z,8.08
2018-12-17T10:01:12.744Z,8.22
2018-12-17T10:02:15.403Z,8.25
2018-12-17T10:03:12.747Z,8.26
2018-12-17T10:04:12.752Z,8.26
2018-12-17T10:05:13.917Z,8.33
2018-12-17T10:06:12.896Z,8.40
2018-12-17T10:07:12.859Z,8.57
2018-12-17T10:08:12.851Z,8.62
2018-12-17T10:09:12.919Z,8.72
2018-12-17T10:10:13.877Z,8.72
2018-12-17T10:11:12.842Z,8.63
2018-12-17T10:12:13.032Z,8.69
2018-12-17T10:13:12.937Z,8.58
2018-12-17T10:14:13.110Z,8.78
2018-12-17T10:15:12.949Z,8.72
2018-12-17T10:16:13.005Z,8.75
2018-12-17T10:17:13.033Z,8.79
2018-12-17T10:18:12.967Z,8.97
2018-12-17T10:19:13.045Z,8.96
2018-12-17T10:20:13.001Z,9.02
2018-12-17T10:21:13.059Z,9.15
2018-12-17T10:22:13.123Z,9.02
2018-12-17T10:23:13.044Z,9.05
2018-12-17T10:24:13.078Z,9.04
2018-12-17T10:25:13.087Z,9.12
2018-12-17T10:26:13.049Z,9.04
2018-12-17T10:27:13.064Z,9.04
2018-12-17T10:28:13.070Z,9.04
2018-12-17T10:29:13.107Z,9.02
2018-12-17T10:30:13.108Z,9.05
2018-12-17T10:31:13.160Z,9.21
2018-12-17T10:32:13.125Z,9.09
2018-12-17T10:33:13.140Z,9.13
2018-12-17T10:34:13.157Z,9.06
2018-12-17T10:35:13.183Z,9.05
2018-12-17T10:36:13.181Z,9.05
2018-12-17T10:37:13.209Z,9.05
2018-12-17T10:38:13.217Z,9.06
2018-12-17T10:39:13.226Z,8.96
2018-12-17T10:40:13.241Z,8.93
2018-12-17T10:41:13.262Z,8.91
2018-12-17T10:42:13.321Z,8.96
2018-12-17T10:43:13.283Z,8.93
2018-12-17T10:44:13.293Z,8.91
2018-12-17T10:45:13.320Z,8.86
2018-12-17T10:46:13.331Z,8.87
2018-12-17T10:47:13.334Z,8.86
2018-12-17T10:48:13.392Z,8.90
2018-12-17T10:49:13.370Z,8.87
2018-12-17T10:50:13.386Z,8.83
2018-12-17T10:51:13.408Z,8.86
2018-12-17T10:52:13.405Z,8.87
2018-12-17T10:53:13.421Z,8.87
2018-12-17T10:54:13.435Z,8.86
2018-12-17T10:55:13.462Z,8.79
2018-12-17T10:56:13.468Z,8.78
2018-12-17T10:57:13.478Z,8.83
2018-12-17T10:58:13.498Z,8.88
2018-12-17T10:59:13.509Z,8.83
2018-12-17T11:00:13.519Z,8.78
2018-12-17T11:01:13.622Z,8.81
2018-12-17T11:02:13.601Z,8.91
2018-12-17T11:03:13.577Z,8.86
2018-12-17T11:04:13.579Z,8.83
2018-12-17T11:05:13.593Z,8.94
2018-12-17T11:06:13.609Z,9.04
2018-12-17T11:07:13.625Z,8.97
2018-12-17T11:08:13.644Z,9.01
2018-12-17T11:09:13.642Z,8.93
2018-12-17T11:10:13.708Z,8.94
2018-12-17T11:11:13.681Z,8.87
2018-12-17T11:12:13.692Z,8.86
2018-12-17T11:13:13.699Z,8.86
2018-12-17T11:14:13.719Z,8.83
2018-12-17T11:15:13.736Z,8.88
2018-12-17T11:16:13.745Z,8.87
2018-12-17T11:17:13.757Z,8.72
2018-12-17T11:18:13.775Z,8.78
2018-12-17T11:19:13.789Z,8.84
2018-12-17T11:20:14.936Z,8.86
2018-12-17T11:21:13.816Z,8.94
2018-12-17T11:22:13.829Z,8.91
2018-12-17T11:23:13.847Z,9.01
2018-12-17T11:24:13.859Z,9.04
2018-12-17T11:25:13.873Z,9.01
2018-12-17T11:26:13.895Z,8.86
2018-12-17T11:27:13.905Z,8.84
2018-12-17T11:28:13.918Z,8.81
2018-12-17T11:29:13.947Z,8.88
2018-12-17T11:30:13.938Z,8.84
2018-12-17T11:31:13.955Z,8.78
2018-12-17T11:32:13.970Z,8.84
2018-12-17T11:33:13.991Z,8.88
2018-12-17T11:34:14.003Z,8.79
2018-12-17T11:35:14.008Z,8.87
2018-12-17T11:36:14.021Z,8.83
2018-12-17T11:37:14.042Z,8.75
2018-12-17T11:38:14.057Z,8.75
2018-12-17T11:39:14.076Z,8.73
2018-12-17T11:40:14.083Z,8.73
2018-12-17T11:41:14.089Z,8.69
2018-12-17T11:42:14.118Z,8.69
2018-12-17T11:43:14.134Z,8.68
2018-12-17T11:44:14.135Z,8.72
2018-12-17T11:45:14.152Z,8.73
2018-12-17T11:46:14.172Z,8.75
2018-12-17T11:47:14.186Z,8.72
2018-12-17T11:48:14.189Z,8.76
2018-12-17T11:49:14.204Z,8.68
2018-12-17T11:50:14.230Z,8.68
2018-12-17T11:51:14.237Z,8.88
2018-12-17T11:52:14.251Z,8.88
2018-12-17T11:53:14.263Z,8.90
2018-12-17T11:54:14.277Z,8.84
2018-12-17T11:55:14.308Z,8.91
2018-12-17T11:56:14.299Z,8.90
2018-12-17T11:57:14.371Z,8.87
2018-12-17T11:58:14.340Z,9.02
2018-12-17T11:59:14.345Z,9.04
2018-12-17T12:00:14.358Z,9.05
2018-12-17T12:01:14.368Z,9.05
2018-12-17T12:02:14.397Z,9.04
2018-12-17T12:03:14.404Z,9.18
2018-12-17T12:04:14.420Z,9.09
2018-12-17T12:05:14.427Z,9.18
2018-12-17T12:06:14.559Z,9.28
2018-12-17T12:07:14.469Z,9.35
2018-12-17T12:08:14.528Z,9.46
2018-12-17T12:09:14.518Z,9.58
2018-12-17T12:10:14.499Z,9.57
2018-12-17T12:11:14.510Z,9.71
2018-12-17T12:12:14.533Z,9.71
2018-12-17T12:13:14.542Z,9.66
2018-12-17T12:14:14.572Z,9.46
2018-12-17T12:15:14.566Z,9.40
2018-12-17T12:16:14.589Z,9.28
2018-12-17T12:17:14.597Z,9.27
2018-12-17T12:18:14.611Z,9.23
2018-12-17T12:19:14.629Z,9.16
2018-12-17T12:20:14.658Z,9.18
2018-12-17T12:21:14.662Z,9.06
2018-12-17T12:22:14.669Z,9.04
2018-12-17T12:23:14.680Z,9.01
2018-12-17T12:24:14.697Z,8.94
2018-12-17T12:25:14.711Z,8.88
2018-12-17T12:26:14.730Z,8.93
2018-12-17T12:27:14.736Z,8.99
2018-12-17T12:28:14.767Z,8.93
2018-12-17T12:29:14.774Z,8.90
2018-12-17T12:30:14.783Z,8.91
2018-12-17T12:31:14.796Z,8.94
2018-12-17T12:32:14.808Z,8.97
2018-12-17T12:33:14.824Z,8.90
2018-12-17T12:34:14.839Z,8.91
2018-12-17T12:35:14.849Z,8.84
2018-12-17T12:36:14.883Z,8.93
2018-12-17T12:37:14.883Z,8.97
2018-12-17T12:38:14.895Z,8.83
2018-12-17T12:39:14.923Z,8.83
2018-12-17T12:40:14.924Z,8.81
2018-12-17T12:41:14.935Z,8.91
2018-12-17T12:42:14.971Z,8.81
2018-12-17T12:43:14.962Z,8.72
2018-12-17T12:44:14.982Z,8.75
2018-12-17T12:45:14.994Z,8.71
2018-12-17T12:46:15.006Z,8.72
2018-12-17T12:47:15.028Z,8.69
2018-12-17T12:48:15.036Z,8.68
2018-12-17T12:49:15.047Z,8.66
2018-12-17T12:50:15.074Z,8.60
2018-12-17T12:51:15.081Z,8.50
2018-12-17T12:52:15.090Z,8.48
2018-12-17T12:53:15.101Z,8.55
2018-12-17T12:54:15.120Z,8.53
2018-12-17T12:55:15.139Z,8.44
2018-12-17T12:56:15.156Z,8.44
2018-12-17T12:57:15.168Z,8.51
2018-12-17T12:58:15.173Z,8.44
2018-12-17T12:59:15.191Z,8.45
2018-12-17T13:00:15.201Z,8.45
2018-12-17T13:01:15.212Z,8.40
2018-12-17T13:02:15.236Z,8.48
2018-12-17T13:03:15.244Z,8.48
2018-12-17T13:04:15.267Z,8.48
2018-12-17T13:05:15.288Z,8.39
2018-12-17T13:06:15.284Z,8.44
2018-12-17T13:07:15.325Z,8.44
2018-12-17T13:08:15.314Z,8.45
2018-12-17T13:09:15.330Z,8.45
2018-12-17T13:10:15.338Z,8.33
2018-12-17T13:11:15.358Z,8.28
2018-12-17T13:12:15.370Z,8.35
2018-12-17T13:13:15.384Z,8.35
2018-12-17T13:14:15.401Z,8.37
2018-12-17T13:15:15.415Z,8.40
2018-12-17T13:16:15.422Z,8.37
2018-12-17T13:17:15.437Z,8.39
2018-12-17T13:18:15.453Z,8.36
2018-12-17T13:19:15.467Z,8.32
2018-12-17T13:20:15.492Z,8.42
2018-12-17T13:21:15.496Z,8.39
2018-12-17T13:22:15.514Z,8.53
2018-12-17T13:23:15.541Z,8.50
2018-12-17T13:24:15.531Z,8.51
2018-12-17T13:25:15.547Z,8.55
2018-12-17T13:26:15.569Z,8.60
2018-12-17T13:27:15.579Z,8.62
2018-12-17T13:28:15.588Z,8.65
2018-12-17T13:29:15.614Z,8.62
2018-12-17T13:30:15.615Z,8.69
2018-12-17T13:31:15.628Z,8.78
2018-12-17T13:32:15.642Z,8.68
2018-12-17T13:33:15.679Z,8.72
2018-12-17T13:34:15.670Z,8.72
2018-12-17T13:35:15.685Z,8.72
2018-12-17T13:36:15.704Z,8.73
2018-12-17T13:37:15.711Z,8.78
2018-12-17T13:38:15.726Z,8.78
2018-12-17T13:39:15.741Z,8.86
2018-12-17T13:40:15.765Z,8.79
2018-12-17T13:41:15.765Z,8.83
2018-12-17T13:42:15.782Z,8.81
2018-12-17T13:43:15.801Z,8.86
2018-12-17T13:44:15.806Z,8.88
2018-12-17T13:45:15.844Z,8.87
2018-12-17T13:46:15.858Z,8.81
2018-12-17T13:47:15.847Z,8.88
2018-12-17T13:48:15.866Z,8.88
2018-12-17T13:49:15.879Z,8.87
2018-12-17T13:50:15.890Z,8.83
2018-12-17T13:51:15.910Z,8.91
2018-12-17T13:52:15.919Z,8.87
2018-12-17T13:53:15.936Z,8.94
2018-12-17T13:54:15.952Z,8.88
2018-12-17T13:55:15.961Z,8.86
2018-12-17T13:56:15.976Z,8.86
2018-12-17T13:57:15.987Z,8.96
2018-12-17T13:58:16.042Z,9.01
2018-12-17T13:59:16.017Z,8.83
2018-12-17T14:00:16.035Z,8.96
2018-12-17T14:01:21.693Z,8.93
2018-12-17T14:02:16.081Z,8.88
2018-12-17T14:03:16.097Z,8.88
2018-12-17T14:04:16.115Z,8.94
2018-12-17T14:05:16.117Z,9.01
2018-12-17T14:06:16.130Z,8.87
2018-12-17T14:07:16.133Z,8.91
2018-12-17T14:08:16.142Z,8.99
2018-12-17T14:09:16.159Z,8.87
2018-12-17T14:10:16.173Z,8.90
2018-12-17T14:11:16.182Z,8.81
2018-12-17T14:12:16.198Z,8.84
2018-12-17T14:13:16.217Z,8.73
2018-12-17T14:14:16.231Z,8.78
2018-12-17T14:15:16.860Z,8.84
2018-12-17T14:16:16.261Z,8.73
2018-12-17T14:17:16.272Z,8.66
2018-12-17T14:18:16.284Z,8.66
2018-12-17T14:19:16.304Z,8.68
2018-12-17T14:20:16.311Z,8.69
2018-12-17T14:21:16.331Z,8.71
2018-12-17T14:22:16.346Z,8.78
2018-12-17T14:23:16.363Z,8.81
2018-12-17T14:24:16.369Z,8.79
2018-12-17T14:25:16.379Z,8.88
2018-12-17T14:26:16.394Z,8.86
2018-12-17T14:27:16.404Z,8.90
2018-12-17T14:28:16.423Z,8.96
2018-12-17T14:29:16.439Z,8.97
2018-12-17T14:30:16.450Z,8.97
2018-12-17T14:31:16.464Z,8.99
2018-12-17T14:32:16.477Z,8.93
2018-12-17T14:33:16.493Z,8.97
2018-12-17T14:34:16.507Z,9.01
2018-12-17T14:35:16.522Z,9.02
2018-12-17T14:36:16.544Z,9.02
2018-12-17T14:37:16.554Z,8.91
2018-12-17T14:38:16.560Z,8.94
2018-12-17T14:39:16.577Z,9.04
2018-12-17T14:40:16.597Z,9.01
2018-12-17T14:41:16.607Z,9.02
2018-12-17T14:42:16.615Z,9.06
2018-12-17T14:43:16.632Z,9.01
2018-12-17T14:44:16.646Z,9.01
2018-12-17T14:45:16.660Z,9.06
2018-12-17T14:46:16.674Z,9.10
2018-12-17T14:47:16.687Z,9.10
2018-12-17T14:48:16.702Z,9.04
2018-12-17T14:49:16.717Z,9.21
2018-12-17T14:50:16.728Z,9.27
2018-12-17T14:51:16.747Z,9.10
2018-12-17T14:52:17.408Z,9.24
2018-12-17T14:53:16.776Z,9.10
2018-12-17T14:54:16.788Z,9.12
2018-12-17T14:55:16.802Z,9.15
2018-12-17T14:56:16.828Z,9.21
2018-12-17T14:57:16.828Z,9.15
2018-12-17T14:58:16.843Z,9.10
2018-12-17T14:59:16.858Z,9.10
2018-12-17T15:00:16.868Z,9.09
2018-12-17T15:01:16.901Z,9.10
2018-12-17T15:02:16.913Z,9.10
2018-12-17T15:03:16.916Z,9.12
2018-12-17T15:04:16.925Z,9.18
2018-12-17T15:05:16.950Z,9.06
2018-12-17T15:06:16.957Z,9.01
2018-12-17T15:07:16.974Z,9.09
2018-12-17T15:08:16.985Z,9.06
2018-12-17T15:09:16.996Z,8.99
2018-12-17T15:10:17.012Z,9.01
2018-12-17T15:11:17.030Z,8.97
2018-12-17T15:12:17.042Z,8.88
2018-12-17T15:13:17.052Z,8.97
2018-12-17T15:14:17.067Z,8.87
2018-12-17T15:15:17.083Z,8.71
2018-12-17T15:16:17.098Z,8.68
2018-12-17T15:17:17.108Z,8.65
2018-12-17T15:18:17.123Z,8.57
2018-12-17T15:19:17.136Z,8.55
2018-12-17T15:20:17.148Z,8.57
2018-12-17T15:21:17.164Z,8.44
2018-12-17T15:22:17.187Z,8.42
2018-12-17T15:23:17.192Z,8.47
2018-12-17T15:24:17.223Z,8.32
2018-12-17T15:25:17.223Z,8.36
2018-12-17T15:26:17.236Z,8.28
2018-12-17T15:27:17.248Z,8.25
2018-12-17T15:28:17.273Z,8.18
2018-12-17T15:29:17.321Z,8.30
2018-12-17T15:30:17.292Z,8.29
2018-12-17T15:31:17.301Z,8.15
2018-12-17T15:32:17.316Z,8.15
2018-12-17T15:33:17.331Z,8.12
2018-12-17T15:34:17.344Z,8.04
2018-12-17T15:35:17.357Z,8.02
2018-12-17T15:36:17.372Z,8.00
2018-12-17T15:37:17.383Z,7.99